Time;durP1;ratioP1;P1;durP2;ratioP2;P2;SDS_P1;SDS_P2;PMS_P1;PMS_P2;Temp;Humidity;BMP_temperature;BMP_pressure;BME280_temperature;BME280_humidity;BME280_pressure;Samples;Min_cycle;Max_cycle;Signal;HPM_P1;HPM_P2
2023/07/29 00:01:37;;;;;;;4.38;0.80;;;;;;;;;;5060639;28;20504;-76
2023/07/29 00:04:09;;;;;;;3.40;0.70;;;;;;;;;;5063413;28;20691;-75
2023/07/29 00:06:39;;;;;;;4.05;1.00;;;;;;;;;;5063915;28;20071;-74
2023/07/29 00:09:09;;;;;;;;;;;;;;;;;;5063152;28;20045;-75
2023/07/29 00:11:39;;;;;;;1.25;0.82;;;;;;;;;;5061740;28;19924;-74
2023/07/29 00:14:09;;;;;;;3.70;0.88;;;;;;;;;;5062703;28;20056;-75
2023/07/29 00:16:41;;;;;;;4.40;0.93;;;;;;;;;;5059800;28;20511;-74
2023/07/29 00:19:12;;;;;;;2.95;0.68;;;;;;;;;;5063886;28;20342;-74
2023/07/29 00:21:42;;;;;;;4.68;0.90;;;;;;;;;;5066062;28;20056;-74
2023/07/29 00:24:13;;;;;;;3.40;0.88;;;;;;;;;;5066337;28;20044;-74
2023/07/29 00:26:44;;;;;;;4.78;0.63;;;;;;;;;;5066406;28;20059;-74
2023/07/29 00:29:14;;;;;;;4.55;0.65;;;;;;;;;;5066431;28;20056;-74
2023/07/29 00:31:45;;;;;;;2.90;0.38;;;;;;;;;;5068034;28;20513;-74
2023/07/29 00:34:19;;;;;;;2.20;0.60;;;;;;;;;;5067438;28;20048;-74
2023/07/29 00:36:50;;;;;;;5.25;0.80;;;;;;;;;;5065850;28;20513;-74
2023/07/29 00:39:20;;;;;;;4.05;1.20;;;;;;;;;;5068027;28;20072;-74
2023/07/29 00:41:51;;;;;;;1.52;0.60;;;;;;;;;;5065975;28;20053;-74
2023/07/29 00:44:23;;;;;;;3.45;0.50;;;;;;;;;;5065711;28;20052;-74
2023/07/29 00:46:55;;;;;;;2.08;0.52;;;;;;;;;;5065362;28;20849;-75
2023/07/29 00:49:25;;;;;;;3.22;0.68;;;;;;;;;;5067572;28;20051;-75
2023/07/29 00:51:55;;;;;;;;;;;;;;;;;;5050459;28;20064;-75
2023/07/29 00:54:26;;;;;;;2.95;0.60;;;;;;;;;;5067456;28;19932;-76
2023/07/29 00:56:57;;;;;;;2.20;0.63;;;;;;;;;;5066011;28;20060;-75
2023/07/29 00:59:28;;;;;;;3.40;0.73;;;;;;;;;;5067362;28;20045;-75
2023/07/29 01:02:00;;;;;;;3.25;0.55;;;;;;;;;;5066153;28;20059;-75
2023/07/29 01:04:32;;;;;;;3.78;0.65;;;;;;;;;;5065357;28;20063;-75
2023/07/29 01:07:28;;;;;;;4.65;0.55;;;;;;;;;;5066446;28;20040;-75
2023/07/29 01:10:05;;;;;;;1.27;0.60;;;;;;;;;;5064297;28;20053;-74
2023/07/29 01:12:35;;;;;;;0.68;0.50;;;;;;;;;;5065658;28;20510;-75
2023/07/29 01:15:22;;;;;;;2.40;0.63;;;;;;;;;;5047175;28;20048;-74
2023/07/29 01:18:05;;;;;;;3.10;0.68;;;;;;;;;;5059895;28;20071;-75
2023/07/29 01:20:40;;;;;;;2.05;0.82;;;;;;;;;;5063013;28;20063;-75
2023/07/29 01:23:11;;;;;;;2.13;0.52;;;;;;;;;;5063990;28;20072;-75
2023/07/29 01:25:41;;;;;;;3.78;0.63;;;;;;;;;;5063950;28;20052;-75
2023/07/29 01:28:13;;;;;;;4.55;0.80;;;;;;;;;;5064819;28;20063;-74
2023/07/29 01:30:45;;;;;;;3.63;0.60;;;;;;;;;;5064833;28;20056;-75
2023/07/29 01:33:23;;;;;;;2.35;0.60;;;;;;;;;;5065681;28;20060;-75
2023/07/29 01:36:11;;;;;;;2.10;0.57;;;;;;;;;;5064842;28;20068;-75
2023/07/29 01:38:44;;;;;;;2.40;0.50;;;;;;;;;;5064678;28;20063;-75
2023/07/29 01:41:18;;;;;;;2.45;0.77;;;;;;;;;;5064638;28;20503;-75
2023/07/29 01:43:50;;;;;;;2.60;0.50;;;;;;;;;;5063452;28;20052;-75
2023/07/29 01:46:21;;;;;;;1.55;0.50;;;;;;;;;;5065608;28;20048;-76
2023/07/29 01:48:52;;;;;;;3.28;0.55;;;;;;;;;;5066591;28;20055;-75
2023/07/29 01:51:22;;;;;;;5.47;0.70;;;;;;;;;;5066200;28;20071;-75
2023/07/29 01:53:55;;;;;;;3.85;0.63;;;;;;;;;;5066557;28;20071;-75
2023/07/29 01:56:26;;;;;;;1.58;0.45;;;;;;;;;;5066382;28;20044;-75
2023/07/29 01:58:59;;;;;;;0.93;0.50;;;;;;;;;;5063618;28;20079;-75
2023/07/29 02:01:31;;;;;;;6.28;0.82;;;;;;;;;;5065632;28;20419;-74
2023/07/29 02:04:02;;;;;;;2.67;0.50;;;;;;;;;;5066378;28;20040;-75
2023/07/29 02:06:32;;;;;;;1.15;0.32;;;;;;;;;;5064834;28;20052;-74
2023/07/29 02:09:04;;;;;;;4.70;0.75;;;;;;;;;;5066482;28;20048;-75
2023/07/29 02:11:35;;;;;;;1.33;0.63;;;;;;;;;;5065923;28;20517;-75
2023/07/29 02:14:06;;;;;;;4.97;0.50;;;;;;;;;;5064133;28;20049;-75
2023/07/29 02:16:37;;;;;;;2.33;0.45;;;;;;;;;;5066024;28;20056;-75
2023/07/29 02:19:08;;;;;;;2.08;0.60;;;;;;;;;;5063735;28;20053;-75
2023/07/29 02:21:39;;;;;;;4.88;0.55;;;;;;;;;;5064602;28;20060;-75
2023/07/29 02:24:10;;;;;;;3.42;0.50;;;;;;;;;;5062015;28;20056;-74
2023/07/29 02:26:39;;;;;;;;;;;;;;;;;;5064637;28;20044;-74
2023/07/29 02:29:10;;;;;;;4.63;0.57;;;;;;;;;;5064952;28;20496;-74
2023/07/29 02:31:40;;;;;;;2.75;0.63;;;;;;;;;;5062697;28;20515;-73
2023/07/29 02:34:11;;;;;;;4.15;0.70;;;;;;;;;;5063876;28;20048;-74
2023/07/29 02:36:41;;;;;;;3.40;0.60;;;;;;;;;;5063113;28;20511;-74
2023/07/29 02:39:11;;;;;;;0.32;0.32;;;;;;;;;;5062562;28;20072;-74
2023/07/29 02:41:43;;;;;;;1.65;0.50;;;;;;;;;;5063625;28;20056;-73
2023/07/29 02:44:16;;;;;;;1.17;0.60;;;;;;;;;;5065041;28;20040;-74
2023/07/29 02:46:46;;;;;;;1.42;0.47;;;;;;;;;;5064498;28;20044;-73
2023/07/29 02:49:18;;;;;;;2.35;0.60;;;;;;;;;;5063661;28;20044;-73
2023/07/29 02:51:49;;;;;;;6.05;1.40;;;;;;;;;;5062429;28;20448;-74
2023/07/29 02:54:21;;;;;;;3.05;0.63;;;;;;;;;;5061536;28;20064;-75
2023/07/29 02:56:53;;;;;;;13.35;4.40;;;;;;;;;;5061423;28;20683;-75
2023/07/29 02:59:25;;;;;;;6.72;3.58;;;;;;;;;;5064120;28;20506;-75
2023/07/29 03:01:56;;;;;;;5.63;2.33;;;;;;;;;;5065079;28;20048;-75
2023/07/29 03:04:27;;;;;;;3.42;1.17;;;;;;;;;;5062595;28;20060;-75
2023/07/29 03:06:59;;;;;;;4.30;0.85;;;;;;;;;;5064971;28;20518;-75
2023/07/29 03:09:30;;;;;;;1.30;0.82;;;;;;;;;;5064626;28;20040;-75
2023/07/29 03:12:00;;;;;;;3.25;0.75;;;;;;;;;;5061299;28;20060;-75
2023/07/29 03:14:32;;;;;;;3.72;0.50;;;;;;;;;;5062828;28;20545;-75
2023/07/29 03:17:06;;;;;;;4.43;0.90;;;;;;;;;;5062470;28;20491;-77
2023/07/29 03:19:39;;;;;;;2.38;0.47;;;;;;;;;;5062095;28;20059;-74
2023/07/29 03:22:09;;;;;;;4.03;0.57;;;;;;;;;;5062795;28;20048;-74
2023/07/29 03:24:38;;;;;;;;;;;;;;;;;;5064746;28;20040;-75
2023/07/29 03:27:09;;;;;;;1.27;0.70;;;;;;;;;;5046074;28;20464;-74
2023/07/29 03:29:40;;;;;;;0.85;0.68;;;;;;;;;;5062254;28;20049;-75
2023/07/29 03:32:12;;;;;;;4.30;0.80;;;;;;;;;;5061168;28;20063;-74
2023/07/29 03:34:42;;;;;;;5.53;0.95;;;;;;;;;;5062245;28;20051;-75
2023/07/29 03:37:13;;;;;;;3.67;0.90;;;;;;;;;;5062331;28;20578;-75
2023/07/29 03:39:45;;;;;;;3.10;0.85;;;;;;;;;;5062144;28;20053;-75
2023/07/29 03:42:16;;;;;;;2.03;1.08;;;;;;;;;;5063258;28;20558;-75
2023/07/29 03:44:46;;;;;;;1.67;0.70;;;;;;;;;;5064696;28;20407;-75
2023/07/29 03:47:16;;;;;;;3.45;0.80;;;;;;;;;;5064841;28;20047;-74
2023/07/29 03:49:47;;;;;;;1.95;0.40;;;;;;;;;;5061321;28;20059;-74
2023/07/29 03:52:21;;;;;;;1.30;0.50;;;;;;;;;;5062436;28;20065;-75
2023/07/29 03:54:52;;;;;;;2.55;0.63;;;;;;;;;;5061676;28;20639;-75
2023/07/29 03:57:22;;;;;;;4.13;0.80;;;;;;;;;;5064095;28;20048;-74
2023/07/29 03:59:52;;;;;;;4.60;0.82;;;;;;;;;;5062228;28;20063;-75
2023/07/29 04:02:22;;;;;;;;;;;;;;;;;;5063451;28;20059;-75
2023/07/29 04:04:53;;;;;;;3.25;0.60;;;;;;;;;;5063413;28;20417;-75
2023/07/29 04:07:23;;;;;;;2.25;0.50;;;;;;;;;;5062444;28;20049;-75
2023/07/29 04:09:55;;;;;;;7.10;0.90;;;;;;;;;;5045172;28;20507;-75
2023/07/29 04:12:24;;;;;;;;;;;;;;;;;;5063022;28;20049;-75
2023/07/29 04:14:55;;;;;;;2.72;0.75;;;;;;;;;;5064173;28;19921;-75
2023/07/29 04:17:26;;;;;;;1.98;1.02;;;;;;;;;;5061320;28;20400;-75
2023/07/29 04:19:57;;;;;;;1.77;0.90;;;;;;;;;;5061505;28;20060;-74
2023/07/29 04:22:34;;;;;;;1.98;0.90;;;;;;;;;;5061279;28;20446;-74
2023/07/29 04:25:06;;;;;;;4.53;1.10;;;;;;;;;;5061285;28;20057;-74
2023/07/29 04:27:37;;;;;;;4.47;0.90;;;;;;;;;;5061661;28;20084;-74
2023/07/29 04:30:07;;;;;;;2.35;0.60;;;;;;;;;;5061999;28;20886;-75
2023/07/29 04:32:38;;;;;;;1.23;0.70;;;;;;;;;;5044485;28;20060;-75
2023/07/29 04:35:10;;;;;;;8.23;1.02;;;;;;;;;;5059912;28;20541;-75
2023/07/29 04:37:41;;;;;;;3.22;0.88;;;;;;;;;;5061627;28;20052;-75
2023/07/29 04:40:12;;;;;;;2.97;1.05;;;;;;;;;;5061478;28;20422;-75
2023/07/29 04:42:41;;;;;;;;;;;;;;;;;;5062858;28;20061;-74
2023/07/29 04:45:11;;;;;;;5.97;1.38;;;;;;;;;;5062034;28;19928;-75
2023/07/29 04:47:42;;;;;;;4.72;0.80;;;;;;;;;;5062024;28;20491;-75
2023/07/29 04:50:13;;;;;;;3.15;1.40;;;;;;;;;;5060252;28;20048;-74
2023/07/29 04:52:43;;;;;;;3.88;0.70;;;;;;;;;;5061498;28;20048;-75
2023/07/29 04:55:14;;;;;;;1.50;0.60;;;;;;;;;;5060072;28;20067;-75
2023/07/29 04:57:44;;;;;;;2.30;0.50;;;;;;;;;;5061893;28;20052;-74
2023/07/29 05:00:16;;;;;;;4.47;0.80;;;;;;;;;;5061298;28;20053;-74
2023/07/29 05:02:47;;;;;;;3.33;0.73;;;;;;;;;;5060108;28;20048;-75
2023/07/29 05:05:17;;;;;;;2.60;0.77;;;;;;;;;;5061772;28;20047;-75
2023/07/29 05:07:47;;;;;;;4.15;1.00;;;;;;;;;;5063791;28;20071;-75
2023/07/29 05:10:19;;;;;;;3.13;0.80;;;;;;;;;;5065703;28;20499;-75
2023/07/29 05:12:50;;;;;;;2.55;1.10;;;;;;;;;;5065406;28;20040;-75
2023/07/29 05:15:20;;;;;;;1.42;0.80;;;;;;;;;;5063934;28;20598;-75
2023/07/29 05:17:50;;;;;;;4.38;1.35;;;;;;;;;;5063554;28;20045;-75
2023/07/29 05:20:21;;;;;;;1.90;0.90;;;;;;;;;;5063430;28;20068;-74
2023/07/29 05:22:51;;;;;;;2.58;0.85;;;;;;;;;;5063253;28;20466;-75
2023/07/29 05:25:21;;;;;;;1.30;0.60;;;;;;;;;;5063068;28;20554;-74
2023/07/29 05:27:52;;;;;;;3.65;0.70;;;;;;;;;;5063880;28;20059;-75
2023/07/29 05:30:23;;;;;;;2.58;0.90;;;;;;;;;;5063909;28;20362;-75
2023/07/29 05:32:53;;;;;;;1.13;0.60;;;;;;;;;;5063352;28;20063;-75
2023/07/29 05:35:24;;;;;;;2.35;0.80;;;;;;;;;;5063761;28;20052;-75
2023/07/29 05:37:54;;;;;;;2.17;0.52;;;;;;;;;;5064146;28;20048;-75
2023/07/29 05:40:24;;;;;;;4.10;0.90;;;;;;;;;;5063536;28;20061;-74
2023/07/29 05:42:56;;;;;;;2.53;0.73;;;;;;;;;;5063509;28;20059;-74
2023/07/29 05:45:27;;;;;;;0.95;0.55;;;;;;;;;;5062574;28;20479;-74
2023/07/29 05:47:57;;;;;;;1.60;0.75;;;;;;;;;;5062435;28;20053;-75
2023/07/29 05:50:28;;;;;;;1.25;0.63;;;;;;;;;;5062746;28;20044;-75
2023/07/29 05:52:58;;;;;;;1.33;0.55;;;;;;;;;;5063986;28;20048;-75
2023/07/29 05:55:29;;;;;;;2.53;0.60;;;;;;;;;;5064529;28;20052;-75
2023/07/29 05:57:59;;;;;;;1.98;0.70;;;;;;;;;;5062755;28;20060;-74
2023/07/29 06:00:30;;;;;;;2.30;0.50;;;;;;;;;;5062131;28;20063;-75
2023/07/29 06:03:02;;;;;;;6.13;1.30;;;;;;;;;;5062871;28;20507;-74
2023/07/29 06:05:33;;;;;;;5.60;0.90;;;;;;;;;;5062685;28;20059;-75
2023/07/29 06:08:04;;;;;;;0.90;0.70;;;;;;;;;;5064757;28;20052;-75
2023/07/29 06:10:36;;;;;;;5.68;0.82;;;;;;;;;;5062809;28;20063;-75
2023/07/29 06:13:06;;;;;;;3.17;0.80;;;;;;;;;;5064819;28;20775;-75
2023/07/29 06:15:44;;;;;;;6.25;0.82;;;;;;;;;;5064680;28;20059;-75
2023/07/29 06:18:14;;;;;;;1.98;0.60;;;;;;;;;;5061130;28;20049;-75
2023/07/29 06:20:45;;;;;;;2.63;0.60;;;;;;;;;;5061706;28;20071;-75
2023/07/29 06:23:19;;;;;;;3.55;0.65;;;;;;;;;;5064213;28;20052;-75
2023/07/29 06:25:49;;;;;;;1.98;0.60;;;;;;;;;;5064559;28;20055;-75
2023/07/29 06:28:19;;;;;;;0.75;0.63;;;;;;;;;;5064373;28;20059;-75
2023/07/29 06:30:50;;;;;;;5.00;0.75;;;;;;;;;;5063302;28;20041;-74
2023/07/29 06:33:20;;;;;;;4.43;0.80;;;;;;;;;;5063399;28;20053;-75
2023/07/29 06:35:51;;;;;;;1.67;0.50;;;;;;;;;;5063888;28;20044;-75
2023/07/29 06:38:22;;;;;;;1.40;0.63;;;;;;;;;;5063738;28;20052;-74
2023/07/29 06:40:52;;;;;;;;;;;;;;;;;;5064751;28;20052;-74
2023/07/29 06:43:22;;;;;;;1.63;0.57;;;;;;;;;;5063476;28;19920;-75
2023/07/29 06:45:53;;;;;;;1.90;0.60;;;;;;;;;;5061803;28;20059;-75
2023/07/29 06:48:23;;;;;;;4.80;0.60;;;;;;;;;;5063011;28;20079;-75
2023/07/29 06:50:55;;;;;;;2.75;0.60;;;;;;;;;;5063358;28;20072;-75
2023/07/29 06:53:25;;;;;;;1.90;0.60;;;;;;;;;;5063511;28;20051;-74
2023/07/29 06:55:56;;;;;;;0.88;0.50;;;;;;;;;;5063232;28;20055;-75
2023/07/29 06:58:27;;;;;;;1.85;0.52;;;;;;;;;;5063574;28;20053;-75
2023/07/29 07:00:57;;;;;;;1.90;0.85;;;;;;;;;;5063486;28;20052;-75
2023/07/29 07:03:27;;;;;;;;;;;;;;;;;;5063353;28;20055;-74
2023/07/29 07:05:57;;;;;;;1.85;0.60;;;;;;;;;;5063053;28;19968;-75
2023/07/29 07:08:28;;;;;;;1.02;0.70;;;;;;;;;;5063366;28;20044;-75
2023/07/29 07:10:58;;;;;;;4.13;0.82;;;;;;;;;;5062912;28;20045;-75
2023/07/29 07:13:29;;;;;;;4.38;0.60;;;;;;;;;;5062411;28;20049;-75
2023/07/29 07:15:59;;;;;;;1.80;0.85;;;;;;;;;;5062599;28;20044;-75
2023/07/29 07:18:29;;;;;;;1.40;0.52;;;;;;;;;;5061789;28;20399;-74
2023/07/29 07:21:00;;;;;;;2.72;0.57;;;;;;;;;;5062230;28;20446;-74
2023/07/29 07:23:30;;;;;;;2.92;0.88;;;;;;;;;;5063912;28;20059;-74
2023/07/29 07:26:00;;;;;;;4.88;0.68;;;;;;;;;;5062067;28;20052;-74
2023/07/29 07:28:30;;;;;;;1.00;0.50;;;;;;;;;;5061207;28;20063;-75
2023/07/29 07:31:01;;;;;;;2.95;0.75;;;;;;;;;;5062573;28;20407;-75
2023/07/29 07:33:32;;;;;;;0.75;0.50;;;;;;;;;;5061586;28;20052;-75
2023/07/29 07:36:03;;;;;;;3.42;0.70;;;;;;;;;;5059020;28;20056;-75
2023/07/29 07:38:33;;;;;;;1.33;0.63;;;;;;;;;;5060710;28;20056;-74
2023/07/29 07:41:04;;;;;;;1.90;0.70;;;;;;;;;;5059576;28;20056;-74
2023/07/29 07:43:34;;;;;;;;;;;;;;;;;;5060173;28;20426;-75
2023/07/29 07:46:05;;;;;;;2.70;0.63;;;;;;;;;;5060013;28;19924;-74
2023/07/29 07:48:36;;;;;;;1.20;0.52;;;;;;;;;;5058965;28;20499;-75
2023/07/29 07:51:15;;;;;;;1.73;0.50;;;;;;;;;;5057576;28;20415;-74
2023/07/29 07:53:46;;;;;;;6.03;1.00;;;;;;;;;;5059062;28;20041;-75
2023/07/29 07:56:16;;;;;;;2.80;0.47;;;;;;;;;;5059094;28;20045;-75
2023/07/29 07:58:47;;;;;;;3.70;0.60;;;;;;;;;;5059903;28;20040;-75
2023/07/29 08:01:17;;;;;;;1.48;0.73;;;;;;;;;;5059131;28;20056;-75
2023/07/29 08:03:48;;;;;;;4.50;0.70;;;;;;;;;;5058087;28;20796;-75
2023/07/29 08:06:19;;;;;;;2.92;0.63;;;;;;;;;;5059384;28;20058;-75
2023/07/29 08:08:49;;;;;;;1.23;0.50;;;;;;;;;;5059543;28;20052;-75
2023/07/29 08:11:19;;;;;;;4.00;0.50;;;;;;;;;;5059502;28;20048;-75
2023/07/29 08:13:49;;;;;;;0.68;0.45;;;;;;;;;;5060613;28;20044;-75
2023/07/29 08:16:21;;;;;;;2.13;0.60;;;;;;;;;;5060840;28;20053;-75
2023/07/29 08:18:51;;;;;;;2.35;0.60;;;;;;;;;;5058834;28;20055;-75
2023/07/29 08:21:21;;;;;;;;;;;;;;;;;;5060528;28;21120;-75
2023/07/29 08:23:51;;;;;;;2.20;0.60;;;;;;;;;;5059620;28;19924;-75
2023/07/29 08:26:22;;;;;;;1.70;0.68;;;;;;;;;;5057979;28;20048;-75
2023/07/29 08:28:53;;;;;;;1.65;0.60;;;;;;;;;;5059168;28;20063;-75
2023/07/29 08:31:24;;;;;;;2.47;0.68;;;;;;;;;;5059071;28;20534;-75
2023/07/29 08:33:55;;;;;;;1.05;0.63;;;;;;;;;;5059498;28;20045;-75
2023/07/29 08:36:24;;;;;;;;;;;;;;;;;;5059966;28;20547;-75
2023/07/29 08:38:55;;;;;;;2.90;0.70;;;;;;;;;;5059139;28;19928;-74
2023/07/29 08:41:38;;;;;;;1.60;0.60;;;;;;;;;;5061376;28;20045;-75
2023/07/29 08:44:35;;;;;;;1.70;0.65;;;;;;;;;;5062475;28;20047;-75
2023/07/29 08:47:06;;;;;;;2.95;0.90;;;;;;;;;;5063143;28;20594;-74
2023/07/29 08:49:38;;;;;;;3.58;0.55;;;;;;;;;;5061391;28;20048;-74
2023/07/29 08:52:16;;;;;;;2.83;0.70;;;;;;;;;;5062448;28;20052;-74
2023/07/29 08:54:49;;;;;;;1.20;0.80;;;;;;;;;;5063312;28;20589;-73
2023/07/29 08:57:21;;;;;;;1.70;0.55;;;;;;;;;;5064066;28;20044;-74
2023/07/29 08:59:52;;;;;;;1.05;0.50;;;;;;;;;;5065030;28;20048;-74
2023/07/29 09:02:22;;;;;;;1.65;0.55;;;;;;;;;;5065221;28;20071;-75
2023/07/29 09:04:53;;;;;;;2.30;0.50;;;;;;;;;;5064531;28;20048;-74
2023/07/29 09:07:23;;;;;;;1.20;0.63;;;;;;;;;;5062562;28;20056;-74
2023/07/29 09:09:53;;;;;;;;;;;;;;;;;;5064145;28;20055;-74
2023/07/29 09:12:23;;;;;;;1.77;0.60;;;;;;;;;;5062192;28;19924;-75
2023/07/29 09:14:56;;;;;;;3.72;0.70;;;;;;;;;;5062742;28;20069;-75
2023/07/29 09:17:32;;;;;;;2.17;0.60;;;;;;;;;;5060159;28;20545;-74
2023/07/29 09:20:02;;;;;;;1.52;0.73;;;;;;;;;;5061891;28;20057;-74
2023/07/29 09:22:33;;;;;;;1.20;0.63;;;;;;;;;;5062441;28;20060;-74
2023/07/29 09:25:04;;;;;;;2.33;0.90;;;;;;;;;;5062414;28;20049;-74
2023/07/29 09:27:39;;;;;;;3.83;0.80;;;;;;;;;;5062580;28;20391;-74
2023/07/29 09:30:16;;;;;;;5.28;0.80;;;;;;;;;;5062439;28;20040;-74
2023/07/29 09:32:47;;;;;;;1.67;0.82;;;;;;;;;;5062237;28;20049;-74
2023/07/29 09:35:17;;;;;;;1.60;0.88;;;;;;;;;;5062741;28;20052;-75
2023/07/29 09:37:48;;;;;;;2.28;0.73;;;;;;;;;;5062555;28;20522;-74
2023/07/29 09:40:23;;;;;;;2.53;0.85;;;;;;;;;;5062447;28;20055;-74
2023/07/29 09:42:55;;;;;;;4.28;1.15;;;;;;;;;;5061639;28;20044;-75
2023/07/29 09:45:28;;;;;;;2.22;0.82;;;;;;;;;;5061343;28;20051;-74
2023/07/29 09:47:58;;;;;;;3.00;0.88;;;;;;;;;;5061294;28;20053;-73
2023/07/29 09:50:30;;;;;;;3.10;0.98;;;;;;;;;;5061157;28;20056;-72
2023/07/29 09:53:00;;;;;;;2.15;0.80;;;;;;;;;;5061795;28;20048;-74
2023/07/29 09:55:34;;;;;;;1.75;0.70;;;;;;;;;;5061703;28;20542;-74
2023/07/29 09:58:08;;;;;;;0.82;0.65;;;;;;;;;;5061955;28;20905;-75
2023/07/29 10:00:42;;;;;;;1.60;0.82;;;;;;;;;;5061070;28;20045;-74
2023/07/29 10:03:13;;;;;;;1.67;0.70;;;;;;;;;;5062670;28;20044;-74
2023/07/29 10:05:45;;;;;;;1.42;0.85;;;;;;;;;;5061698;28;20503;-77
2023/07/29 10:08:16;;;;;;;5.07;0.80;;;;;;;;;;5061926;28;20695;-74
2023/07/29 10:10:47;;;;;;;1.55;0.65;;;;;;;;;;5061258;28;20050;-74
2023/07/29 10:13:17;;;;;;;2.97;0.93;;;;;;;;;;5062415;28;20053;-74
2023/07/29 10:15:50;;;;;;;4.38;1.00;;;;;;;;;;5060878;28;20854;-74
2023/07/29 10:18:22;;;;;;;0.63;0.52;;;;;;;;;;5061311;28;20059;-77
2023/07/29 10:20:56;;;;;;;0.68;0.45;;;;;;;;;;5060922;28;20849;-74
2023/07/29 10:23:28;;;;;;;1.30;0.68;;;;;;;;;;5061092;28;20399;-75
2023/07/29 10:26:06;;;;;;;1.02;0.70;;;;;;;;;;5061185;28;20055;-74
2023/07/29 10:28:41;;;;;;;2.25;1.00;;;;;;;;;;5063086;28;20052;-77
2023/07/29 10:31:13;;;;;;;2.65;1.05;;;;;;;;;;5061065;28;20055;-73
2023/07/29 10:33:44;;;;;;;5.03;1.60;;;;;;;;;;5061319;28;20407;-75
2023/07/29 10:36:16;;;;;;;6.32;1.95;;;;;;;;;;5059698;28;20052;-74
2023/07/29 10:38:50;;;;;;;2.75;1.30;;;;;;;;;;5061473;28;20080;-73
2023/07/29 10:41:20;;;;;;;3.35;1.20;;;;;;;;;;5061083;28;20525;-74
2023/07/29 10:43:50;;;;;;;;;;;;;;;;;;5061194;28;20423;-74
2023/07/29 10:46:21;;;;;;;2.10;1.08;;;;;;;;;;5060334;28;20470;-78
2023/07/29 10:48:51;;;;;;;1.52;0.80;;;;;;;;;;5061460;28;20056;-74
2023/07/29 10:51:37;;;;;;;2.85;1.05;;;;;;;;;;5061986;28;20040;-75
2023/07/29 10:54:16;;;;;;;2.95;1.38;;;;;;;;;;5060260;28;20052;-74
2023/07/29 10:56:50;;;;;;;2.50;1.45;;;;;;;;;;5060730;28;20055;-74
2023/07/29 10:59:22;;;;;;;4.13;1.60;;;;;;;;;;5060719;28;20040;-74
2023/07/29 11:01:57;;;;;;;11.95;1.98;;;;;;;;;;5061453;28;20049;-75
2023/07/29 11:04:30;;;;;;;3.35;1.00;;;;;;;;;;5061609;28;20052;-73
2023/07/29 11:07:04;;;;;;;11.77;1.30;;;;;;;;;;5062083;28;20526;-74
2023/07/29 11:09:42;;;;;;;5.00;1.15;;;;;;;;;;5062777;28;20048;-74
2023/07/29 11:12:37;;;;;;;2.33;0.90;;;;;;;;;;5061581;28;20428;-74
2023/07/29 11:15:10;;;;;;;2.25;0.85;;;;;;;;;;5062097;28;20056;-74
2023/07/29 11:18:00;;;;;;;1.00;0.90;;;;;;;;;;5059662;28;20059;-74
2023/07/29 11:20:34;;;;;;;3.05;0.98;;;;;;;;;;5061055;28;20063;-73
2023/07/29 11:23:06;;;;;;;1.60;0.98;;;;;;;;;;5062180;28;20060;-74
2023/07/29 11:25:38;;;;;;;1.58;0.70;;;;;;;;;;5061743;28;20044;-74
2023/07/29 11:28:08;;;;;;;4.78;1.20;;;;;;;;;;5061298;28;20499;-74
2023/07/29 11:30:42;;;;;;;6.28;1.20;;;;;;;;;;5062648;28;20059;-75
2023/07/29 11:33:13;;;;;;;2.47;1.02;;;;;;;;;;5060809;28;20048;-75
2023/07/29 11:35:44;;;;;;;1.73;0.85;;;;;;;;;;5061371;28;20324;-75
2023/07/29 11:38:18;;;;;;;4.45;1.10;;;;;;;;;;5061288;28;20044;-74
2023/07/29 11:41:03;;;;;;;2.90;1.00;;;;;;;;;;5061460;28;20063;-75
2023/07/29 11:43:36;;;;;;;3.60;0.98;;;;;;;;;;5061156;28;20040;-75
2023/07/29 11:46:07;;;;;;;3.47;0.93;;;;;;;;;;5061288;28;20041;-74
2023/07/29 11:48:38;;;;;;;1.48;0.68;;;;;;;;;;5060298;28;20492;-75
2023/07/29 11:51:11;;;;;;;4.35;0.90;;;;;;;;;;5060069;28;20055;-75
2023/07/29 11:53:42;;;;;;;3.75;0.68;;;;;;;;;;5059343;28;20048;-78
2023/07/29 11:56:13;;;;;;;3.35;0.70;;;;;;;;;;5058908;28;20053;-75
2023/07/29 11:58:45;;;;;;;3.50;0.80;;;;;;;;;;5060376;28;20048;-75
2023/07/29 12:01:16;;;;;;;6.70;0.90;;;;;;;;;;5059564;28;20052;-75
2023/07/29 12:03:48;;;;;;;6.00;0.90;;;;;;;;;;5059946;28;20049;-75
2023/07/29 12:06:18;;;;;;;6.57;1.23;;;;;;;;;;5059848;28;20049;-76
2023/07/29 12:08:49;;;;;;;3.55;0.60;;;;;;;;;;5059856;28;20067;-76
2023/07/29 12:11:23;;;;;;;2.28;0.52;;;;;;;;;;5059927;28;20048;-76
2023/07/29 12:13:54;;;;;;;1.10;0.60;;;;;;;;;;5059760;28;20076;-75
2023/07/29 12:16:24;;;;;;;1.83;0.63;;;;;;;;;;5061607;28;20502;-75
2023/07/29 12:18:55;;;;;;;3.15;0.85;;;;;;;;;;5063075;28;20041;-76
2023/07/29 12:21:26;;;;;;;2.67;0.60;;;;;;;;;;5062554;28;20063;-75
2023/07/29 12:23:57;;;;;;;6.65;1.17;;;;;;;;;;5063387;28;20499;-75
2023/07/29 12:26:30;;;;;;;3.75;0.90;;;;;;;;;;5061722;28;20052;-76
2023/07/29 12:29:12;;;;;;;2.65;0.80;;;;;;;;;;5063466;28;20277;-75
2023/07/29 12:31:42;;;;;;;4.72;0.73;;;;;;;;;;5063084;28;20052;-75
2023/07/29 12:34:21;;;;;;;4.68;0.70;;;;;;;;;;5063076;28;20048;-75
2023/07/29 12:36:54;;;;;;;2.53;0.70;;;;;;;;;;5063020;28;20036;-76
2023/07/29 12:39:31;;;;;;;1.50;0.45;;;;;;;;;;5062862;28;20041;-75
2023/07/29 12:42:03;;;;;;;8.38;1.08;;;;;;;;;;5063220;28;20049;-76
2023/07/29 12:44:38;;;;;;;1.98;0.50;;;;;;;;;;5063561;28;20052;-75
2023/07/29 12:47:11;;;;;;;2.75;1.08;;;;;;;;;;5063252;28;20071;-77
2023/07/29 12:49:42;;;;;;;3.83;0.80;;;;;;;;;;5063239;28;20049;-75
2023/07/29 12:52:13;;;;;;;4.20;1.13;;;;;;;;;;5061309;28;20049;-78
2023/07/29 12:54:44;;;;;;;4.22;0.90;;;;;;;;;;5062835;28;20067;-74
2023/07/29 12:57:14;;;;;;;3.22;0.90;;;;;;;;;;5061277;28;20056;-75
2023/07/29 12:59:45;;;;;;;6.93;1.60;;;;;;;;;;5062550;28;20044;-75
2023/07/29 13:02:15;;;;;;;3.15;1.13;;;;;;;;;;5062477;28;20051;-75
2023/07/29 13:04:45;;;;;;;6.57;1.73;;;;;;;;;;5062624;28;20101;-78
2023/07/29 13:07:16;;;;;;;6.93;1.50;;;;;;;;;;5062734;28;20606;-75
2023/07/29 13:09:48;;;;;;;5.63;1.60;;;;;;;;;;5062685;28;20414;-77
2023/07/29 13:12:19;;;;;;;3.85;1.10;;;;;;;;;;5062648;28;20048;-76
2023/07/29 13:14:49;;;;;;;6.80;1.15;;;;;;;;;;5061860;28;20431;-76
2023/07/29 13:17:21;;;;;;;5.22;1.60;;;;;;;;;;5062262;28;20040;-76
2023/07/29 13:19:53;;;;;;;2.80;1.20;;;;;;;;;;5062024;28;20415;-75
2023/07/29 13:22:23;;;;;;;2.90;1.20;;;;;;;;;;5062121;28;20057;-76
2023/07/29 13:24:54;;;;;;;3.83;1.20;;;;;;;;;;5062374;28;20802;-75
2023/07/29 13:27:25;;;;;;;4.47;1.27;;;;;;;;;;5062451;28;20098;-76
2023/07/29 13:29:56;;;;;;;2.13;0.90;;;;;;;;;;5061770;28;20047;-75
2023/07/29 13:32:26;;;;;;;3.80;1.13;;;;;;;;;;5062309;28;20044;-76
2023/07/29 13:34:57;;;;;;;4.32;1.17;;;;;;;;;;5062335;28;20045;-75
2023/07/29 13:37:27;;;;;;;3.38;1.10;;;;;;;;;;5060432;28;20041;-75
2023/07/29 13:39:58;;;;;;;0.70;0.70;;;;;;;;;;5061723;28;20053;-75
2023/07/29 13:42:30;;;;;;;2.28;0.82;;;;;;;;;;5061869;28;20049;-75
2023/07/29 13:45:02;;;;;;;3.08;0.88;;;;;;;;;;5061528;28;20082;-74
2023/07/29 13:47:33;;;;;;;3.35;0.80;;;;;;;;;;5061604;28;20380;-76
2023/07/29 13:50:04;;;;;;;3.47;0.80;;;;;;;;;;5061633;28;20426;-74
2023/07/29 13:52:37;;;;;;;7.72;1.42;;;;;;;;;;5062097;28;20048;-73
2023/07/29 13:55:07;;;;;;;5.10;0.95;;;;;;;;;;5061224;28;20120;-74
2023/07/29 13:57:39;;;;;;;3.85;0.90;;;;;;;;;;5061606;28;20045;-75
2023/07/29 14:00:10;;;;;;;3.88;0.70;;;;;;;;;;5061463;28;20048;-74
2023/07/29 14:02:43;;;;;;;8.18;0.60;;;;;;;;;;5060056;28;20499;-73
2023/07/29 14:05:14;;;;;;;1.88;0.70;;;;;;;;;;5061238;28;20059;-74
2023/07/29 14:07:44;;;;;;;2.63;0.60;;;;;;;;;;5061537;28;20419;-75
2023/07/29 14:10:16;;;;;;;8.15;1.00;;;;;;;;;;5061047;28;20055;-75
2023/07/29 14:12:46;;;;;;;0.93;0.52;;;;;;;;;;5060969;28;20045;-75
2023/07/29 14:15:23;;;;;;;1.58;0.52;;;;;;;;;;5060952;28;20056;-76
2023/07/29 14:17:53;;;;;;;3.83;0.73;;;;;;;;;;5061211;28;20056;-76
2023/07/29 14:20:24;;;;;;;4.35;0.90;;;;;;;;;;5060206;28;20063;-75
2023/07/29 14:22:55;;;;;;;4.80;0.90;;;;;;;;;;5061331;28;20041;-75
2023/07/29 14:25:25;;;;;;;3.88;0.80;;;;;;;;;;5060149;28;20459;-76
2023/07/29 14:27:55;;;;;;;7.72;1.10;;;;;;;;;;5060429;28;20052;-75
2023/07/29 14:30:26;;;;;;;3.13;0.70;;;;;;;;;;5057779;28;20416;-75
2023/07/29 14:32:56;;;;;;;3.42;0.90;;;;;;;;;;5060954;28;20044;-75
2023/07/29 14:35:27;;;;;;;6.82;0.88;;;;;;;;;;5060509;28;20044;-74
2023/07/29 14:37:56;;;;;;;3.88;0.55;;;;;;;;;;5060425;28;20582;-75
2023/07/29 14:40:27;;;;;;;3.78;0.70;;;;;;;;;;5059612;28;20547;-78
2023/07/29 14:42:57;;;;;;;5.85;0.80;;;;;;;;;;5060366;28;20049;-78
2023/07/29 14:45:29;;;;;;;2.20;0.55;;;;;;;;;;5060387;28;20415;-74
2023/07/29 14:47:59;;;;;;;1.80;0.52;;;;;;;;;;5060064;28;20040;-75
2023/07/29 14:50:29;;;;;;;5.78;0.77;;;;;;;;;;5059994;28;20838;-75
2023/07/29 14:52:59;;;;;;;2.08;0.50;;;;;;;;;;5061006;28;20052;-74
2023/07/29 14:55:30;;;;;;;3.35;0.70;;;;;;;;;;5058130;28;20423;-74
2023/07/29 14:58:01;;;;;;;3.47;0.73;;;;;;;;;;5045341;28;20052;-74
2023/07/29 15:00:32;;;;;;;4.00;0.80;;;;;;;;;;5039206;28;20066;-74
2023/07/29 15:03:03;;;;;;;1.80;0.55;;;;;;;;;;5041928;28;20861;-74
2023/07/29 15:05:33;;;;;;;2.58;0.88;;;;;;;;;;5040429;28;20593;-75
2023/07/29 15:08:03;;;;;;;2.88;0.70;;;;;;;;;;5040707;28;20056;-75
2023/07/29 15:10:34;;;;;;;2.90;0.70;;;;;;;;;;5040133;28;20521;-75
2023/07/29 15:13:05;;;;;;;1.55;0.70;;;;;;;;;;5068378;28;20455;-74
2023/07/29 15:15:34;;;;;;;2.25;0.63;;;;;;;;;;5078286;28;20543;-75